createdAt,value
2022-08-16T00:00:03.692Z,70.65
2022-08-16T00:02:33.718Z,70.67
2022-08-16T00:05:01.506Z,70.70
2022-08-16T00:07:29.851Z,70.93
2022-08-16T00:09:58.835Z,70.85
2022-08-16T00:12:28.402Z,70.95
2022-08-16T00:14:57.120Z,70.83
2022-08-16T00:17:25.479Z,71.05
2022-08-16T00:19:55.202Z,70.66
2022-08-16T00:22:25.139Z,71.19
2022-08-16T00:24:54.639Z,70.88
2022-08-16T00:27:23.137Z,71.17
2022-08-16T00:30:08.604Z,71.17
2022-08-16T00:32:38.678Z,71.44
2022-08-16T00:35:11.024Z,71.62
2022-08-16T00:37:57.392Z,71.65
2022-08-16T00:40:36.948Z,71.99
2022-08-16T00:43:25.029Z,72.14
2022-08-16T00:46:34.337Z,71.95
2022-08-16T00:49:01.227Z,72.08
2022-08-16T00:51:29.697Z,72.34
2022-08-16T00:53:59.847Z,72.28
2022-08-16T00:56:57.594Z,72.72
2022-08-16T00:59:21.209Z,72.92
2022-08-16T01:01:51.588Z,72.98
2022-08-16T01:04:29.014Z,73.01
2022-08-16T01:07:02.365Z,73.08
2022-08-16T01:09:33.593Z,73.20
2022-08-16T01:12:02.274Z,73.14
2022-08-16T01:14:35.012Z,73.04
2022-08-16T01:17:03.754Z,73.38
2022-08-16T01:19:58.209Z,73.06
2022-08-16T01:23:10.569Z,73.33
2022-08-16T01:25:41.985Z,73.36
2022-08-16T01:28:20.041Z,72.92
2022-08-16T01:30:50.710Z,73.02
2022-08-16T01:33:19.854Z,73.20
2022-08-16T01:36:00.702Z,72.85
2022-08-16T01:38:49.339Z,73.21
2022-08-16T01:41:29.659Z,73.07
2022-08-16T01:44:01.259Z,72.64
2022-08-16T01:46:44.855Z,72.88
2022-08-16T01:49:18.878Z,72.65
2022-08-16T01:51:50.422Z,72.27
2022-08-16T01:54:17.193Z,72.05
2022-08-16T01:56:58.860Z,72.18
2022-08-16T01:59:26.215Z,72.04
2022-08-16T02:02:00.132Z,71.88
2022-08-16T02:04:48.376Z,72.25
2022-08-16T02:07:18.559Z,71.98
2022-08-16T02:09:57.448Z,72.09
2022-08-16T02:12:49.440Z,72.14
2022-08-16T02:15:15.879Z,71.68
2022-08-16T02:17:43.469Z,71.79
2022-08-16T02:20:12.227Z,71.69
2022-08-16T02:22:39.983Z,71.96
2022-08-16T02:25:14.770Z,71.81
2022-08-16T02:27:44.581Z,71.65
2022-08-16T02:30:35.741Z,71.39
2022-08-16T02:33:05.376Z,71.71
2022-08-16T02:35:33.722Z,71.69
2022-08-16T02:38:01.692Z,71.29
2022-08-16T02:40:36.442Z,71.42
2022-08-16T02:43:04.523Z,71.57
2022-08-16T02:45:31.968Z,71.59
2022-08-16T02:48:01.560Z,71.44
2022-08-16T02:50:54.884Z,71.24
2022-08-16T02:53:33.596Z,71.66
2022-08-16T02:56:00.670Z,71.44
2022-08-16T02:58:28.147Z,71.32
2022-08-16T03:00:57.872Z,71.24
2022-08-16T03:03:26.552Z,71.32
2022-08-16T03:05:53.549Z,71.50
2022-08-16T03:08:50.254Z,71.33
2022-08-16T03:11:16.646Z,71.42
2022-08-16T03:13:51.627Z,71.23
2022-08-16T03:16:38.374Z,71.05
2022-08-16T03:19:08.621Z,71.13
2022-08-16T03:21:37.902Z,70.61
2022-08-16T03:24:27.692Z,70.87
2022-08-16T03:26:59.032Z,70.60
2022-08-16T03:29:32.353Z,70.96
2022-08-16T03:32:01.263Z,70.46
2022-08-16T03:34:29.424Z,70.48
2022-08-16T03:36:58.442Z,70.77
2022-08-16T03:39:25.907Z,70.34
2022-08-16T03:41:59.302Z,70.36
2022-08-16T03:44:44.646Z,70.39
2022-08-16T03:47:18.512Z,70.41
2022-08-16T03:49:51.705Z,70.59
2022-08-16T03:52:23.518Z,70.30
2022-08-16T03:54:53.540Z,70.04
2022-08-16T03:57:31.851Z,69.98
2022-08-16T04:00:35.168Z,70.08
2022-08-16T04:03:07.270Z,70.17
2022-08-16T04:05:36.798Z,70.09
2022-08-16T04:08:15.138Z,69.81
2022-08-16T04:10:52.656Z,69.89
2022-08-16T04:13:20.323Z,69.79
2022-08-16T04:15:48.108Z,69.63
2022-08-16T04:18:20.006Z,70.07
2022-08-16T04:20:49.074Z,69.69
2022-08-16T04:23:16.163Z,69.76
2022-08-16T04:25:47.083Z,69.66
2022-08-16T04:28:54.435Z,69.77
2022-08-16T04:31:01.283Z,69.83
2022-08-16T04:33:28.053Z,69.46
2022-08-16T04:35:58.044Z,69.53
2022-08-16T04:38:25.979Z,70.02
2022-08-16T04:40:54.435Z,69.69
2022-08-16T04:43:21.145Z,69.53
2022-08-16T04:46:00.544Z,69.97
2022-08-16T04:48:28.600Z,69.80
2022-08-16T04:51:01.264Z,69.69
2022-08-16T04:53:35.411Z,69.50
2022-08-16T04:56:11.184Z,69.56
2022-08-16T04:58:43.901Z,69.42
2022-08-16T05:01:13.499Z,69.70
2022-08-16T05:04:00.877Z,69.71
2022-08-16T05:06:45.217Z,69.54
2022-08-16T05:09:12.735Z,69.41
2022-08-16T05:11:39.755Z,69.72
2022-08-16T05:14:07.530Z,69.55
2022-08-16T05:16:35.931Z,69.17
2022-08-16T05:19:02.982Z,69.24
2022-08-16T05:21:38.304Z,69.58
2022-08-16T05:24:07.526Z,69.41
2022-08-16T05:26:40.911Z,69.64
2022-08-16T05:29:10.867Z,69.48
2022-08-16T05:31:48.048Z,69.33
2022-08-16T05:34:22.469Z,69.39
2022-08-16T05:36:51.310Z,69.28
2022-08-16T05:39:19.038Z,69.43
2022-08-16T05:41:48.932Z,69.39
2022-08-16T05:44:23.279Z,69.07
2022-08-16T05:46:57.320Z,68.86
2022-08-16T05:49:36.938Z,68.91
2022-08-16T05:52:11.576Z,68.95
2022-08-16T05:54:47.175Z,69.09
2022-08-16T05:57:17.894Z,68.79
2022-08-16T05:59:47.478Z,68.63
2022-08-16T06:02:29.114Z,68.63
2022-08-16T06:04:56.149Z,68.95
2022-08-16T06:07:25.047Z,68.84
2022-08-16T06:09:56.517Z,68.54
2022-08-16T06:12:26.930Z,68.34
2022-08-16T06:14:59.507Z,68.44
2022-08-16T06:17:43.834Z,68.53
2022-08-16T06:20:18.435Z,68.17
2022-08-16T06:22:57.711Z,68.14
2022-08-16T06:25:36.027Z,68.46
2022-08-16T06:28:08.765Z,68.32
2022-08-16T06:30:36.709Z,68.02
2022-08-16T06:33:12.509Z,67.86
2022-08-16T06:35:41.511Z,68.01
2022-08-16T06:38:32.473Z,67.81
2022-08-16T06:40:56.858Z,67.81
2022-08-16T06:43:27.537Z,67.86
2022-08-16T06:45:54.812Z,67.42
2022-08-16T06:48:33.160Z,67.18
2022-08-16T06:51:02.806Z,67.42
2022-08-16T06:53:35.402Z,66.85
2022-08-16T06:56:05.998Z,66.78
2022-08-16T06:58:34.034Z,66.68
2022-08-16T07:01:04.430Z,66.77
2022-08-16T07:03:55.823Z,66.50
2022-08-16T07:06:26.513Z,66.37
2022-08-16T07:08:54.544Z,66.58
2022-08-16T07:11:48.070Z,66.07
2022-08-16T07:14:25.091Z,66.37
2022-08-16T07:17:51.976Z,66.12
2022-08-16T07:25:10.594Z,65.88
2022-08-16T07:27:39.517Z,65.52
2022-08-16T07:30:39.342Z,65.42
2022-08-16T07:32:57.754Z,65.01
2022-08-16T07:35:25.229Z,65.05
2022-08-16T07:37:52.024Z,64.68
2022-08-16T07:40:19.102Z,64.68
2022-08-16T07:42:52.546Z,64.52
2022-08-16T07:45:19.709Z,64.67
2022-08-16T07:47:46.567Z,64.49
2022-08-16T07:50:57.384Z,64.00
2022-08-16T07:53:07.018Z,64.13
2022-08-16T07:55:45.827Z,63.71
2022-08-16T07:58:18.429Z,63.95
2022-08-16T08:01:01.932Z,63.74
2022-08-16T08:03:35.951Z,63.79
2022-08-16T08:06:06.619Z,63.52
2022-08-16T08:08:51.327Z,63.31
2022-08-16T08:11:20.018Z,62.84
2022-08-16T08:13:49.165Z,62.98
2022-08-16T08:16:19.634Z,62.58
2022-08-16T08:18:50.638Z,62.68
2022-08-16T08:21:27.677Z,62.70
2022-08-16T08:24:12.785Z,62.22
2022-08-16T08:26:43.006Z,62.61
2022-08-16T08:29:10.011Z,62.27
2022-08-16T08:31:42.343Z,62.12
2022-08-16T08:34:09.528Z,61.84
2022-08-16T08:36:40.043Z,62.31
2022-08-16T08:39:12.548Z,62.27
2022-08-16T08:41:42.434Z,61.90
2022-08-16T08:44:29.413Z,61.87
2022-08-16T08:47:09.261Z,62.27
2022-08-16T08:49:46.559Z,61.76
2022-08-16T08:52:35.369Z,61.83
2022-08-16T08:55:10.249Z,61.38
2022-08-16T08:57:38.238Z,61.53
2022-08-16T09:00:07.941Z,61.75
2022-08-16T09:02:44.453Z,61.47
2022-08-16T09:05:17.771Z,61.55
2022-08-16T09:08:00.617Z,61.03
2022-08-16T09:10:30.526Z,60.78
2022-08-16T09:12:59.744Z,60.85
2022-08-16T09:15:33.177Z,60.76
2022-08-16T09:18:25.026Z,60.52
2022-08-16T09:20:59.410Z,59.89
2022-08-16T09:23:29.550Z,59.99
2022-08-16T09:25:56.364Z,59.42
2022-08-16T09:29:15.960Z,59.47
2022-08-16T09:31:11.070Z,59.15
2022-08-16T09:33:39.249Z,59.01
2022-08-16T09:36:12.308Z,58.83
2022-08-16T09:38:59.700Z,58.66
2022-08-16T09:41:28.154Z,58.03
2022-08-16T09:44:00.174Z,58.22
2022-08-16T09:46:44.521Z,57.57
2022-08-16T09:49:14.648Z,57.70
2022-08-16T09:51:43.267Z,57.29
2022-08-16T09:54:10.927Z,57.24
2022-08-16T09:56:53.069Z,57.05
2022-08-16T09:59:22.728Z,57.12
2022-08-16T10:01:51.609Z,56.60
2022-08-16T10:04:29.812Z,56.33
2022-08-16T10:07:01.846Z,55.98
2022-08-16T10:09:44.688Z,55.90
2022-08-16T10:12:35.048Z,55.49
2022-08-16T10:15:15.675Z,54.89
2022-08-16T10:18:01.087Z,54.54
2022-08-16T10:20:38.200Z,54.61
2022-08-16T10:23:09.829Z,53.91
2022-08-16T10:27:20.629Z,53.40
2022-08-16T10:28:39.937Z,53.16
2022-08-16T10:31:11.938Z,53.17
2022-08-16T10:33:44.586Z,53.07
2022-08-16T10:36:39.263Z,52.90
2022-08-16T10:39:00.237Z,52.57
2022-08-16T10:41:27.020Z,52.48
2022-08-16T10:43:53.980Z,52.41
2022-08-16T10:46:39.532Z,52.14
2022-08-16T10:49:10.165Z,52.24
2022-08-16T10:52:01.583Z,51.96
2022-08-16T10:54:29.153Z,52.26
2022-08-16T10:56:57.820Z,51.81
2022-08-16T10:59:45.849Z,52.19
2022-08-16T11:02:59.932Z,51.93
2022-08-16T11:05:08.868Z,51.93
2022-08-16T11:07:51.702Z,51.99
2022-08-16T11:19:13.099Z,52.23
2022-08-16T11:24:41.920Z,52.27
2022-08-16T11:27:24.176Z,51.98
2022-08-16T11:30:00.151Z,52.22
2022-08-16T11:32:33.560Z,52.33
2022-08-16T11:35:16.050Z,52.25
2022-08-16T11:38:05.898Z,52.24
2022-08-16T11:40:53.165Z,52.13
2022-08-16T11:43:24.852Z,51.78
2022-08-16T11:45:55.055Z,52.08
2022-08-16T11:48:28.938Z,52.16
2022-08-16T11:50:57.155Z,52.14
2022-08-16T11:53:25.127Z,51.85
2022-08-16T11:55:54.965Z,51.98
2022-08-16T11:58:24.442Z,52.28
2022-08-16T12:00:53.494Z,52.22
2022-08-16T12:03:34.595Z,52.27
2022-08-16T12:06:30.629Z,52.33
2022-08-16T12:09:01.006Z,52.44
2022-08-16T12:11:31.481Z,52.44
2022-08-16T12:14:01.013Z,52.22
2022-08-16T12:16:31.279Z,52.34
2022-08-16T12:20:01.165Z,52.70
2022-08-16T12:27:09.763Z,52.48
2022-08-16T12:30:38.679Z,52.69
2022-08-16T12:34:05.670Z,53.02
2022-08-16T12:37:32.126Z,52.76
2022-08-16T12:44:53.528Z,52.90
2022-08-16T12:48:35.170Z,52.53
2022-08-16T12:55:44.978Z,52.53
2022-08-16T12:59:11.595Z,52.31
2022-08-16T13:06:33.746Z,51.97
2022-08-16T13:10:03.489Z,51.67
2022-08-16T13:13:36.435Z,51.66
2022-08-16T13:17:03.077Z,51.23
2022-08-16T13:24:16.198Z,51.30
2022-08-16T13:28:01.681Z,50.90
2022-08-16T13:31:30.175Z,51.21
2022-08-16T13:34:56.656Z,50.41
2022-08-16T13:42:17.221Z,50.17
2022-08-16T13:45:44.898Z,49.52
2022-08-16T13:49:11.719Z,49.29
2022-08-16T13:52:39.706Z,49.27
2022-08-16T13:59:50.181Z,48.58
2022-08-16T14:03:18.381Z,47.92
2022-08-16T14:10:36.390Z,47.15
2022-08-16T14:14:05.649Z,47.43
2022-08-16T14:18:14.922Z,47.06
2022-08-16T15:12:26.982Z,47.19
2022-08-16T15:14:58.167Z,47.46
2022-08-16T15:17:33.884Z,47.17
2022-08-16T15:20:08.738Z,47.39
2022-08-16T15:22:45.304Z,47.31
2022-08-16T15:25:19.744Z,47.45
2022-08-16T15:27:55.063Z,47.07
2022-08-16T15:30:59.867Z,47.06
2022-08-16T15:33:15.654Z,47.23
2022-08-16T15:35:43.800Z,47.31
2022-08-16T15:38:57.090Z,47.37
2022-08-16T15:40:59.003Z,47.32
2022-08-16T15:43:33.845Z,47.47
2022-08-16T15:46:54.013Z,47.42
2022-08-16T15:49:12.170Z,47.29
2022-08-16T15:51:39.853Z,47.28
2022-08-16T15:54:21.087Z,47.28
2022-08-16T15:56:56.137Z,46.96
2022-08-16T15:59:24.636Z,46.93
2022-08-16T16:01:55.954Z,46.77
2022-08-16T16:04:25.908Z,46.93
2022-08-16T16:06:54.968Z,46.91
2022-08-16T16:09:34.646Z,46.91
2022-08-16T16:12:41.490Z,46.93
2022-08-16T16:14:52.724Z,46.66
2022-08-16T16:17:19.730Z,46.72
2022-08-16T16:19:49.755Z,46.73
2022-08-16T16:22:22.164Z,46.46
2022-08-16T16:24:52.204Z,46.35
2022-08-16T16:27:19.107Z,46.47
2022-08-16T16:29:57.731Z,46.29
2022-08-16T16:32:34.491Z,46.40
2022-08-16T16:35:04.477Z,46.12
2022-08-16T16:37:32.856Z,45.93
2022-08-16T16:40:01.238Z,45.91
2022-08-16T16:42:31.597Z,45.86
2022-08-16T16:45:01.504Z,45.85
2022-08-16T16:47:30.797Z,45.67
2022-08-16T16:50:09.906Z,45.85
2022-08-16T16:52:44.229Z,45.79
2022-08-16T16:55:13.462Z,45.62
2022-08-16T16:58:00.419Z,45.87
2022-08-16T17:00:38.355Z,45.68
2022-08-16T17:03:08.101Z,45.38
2022-08-16T17:05:57.261Z,45.17
2022-08-16T17:08:26.952Z,44.74
2022-08-16T17:10:55.449Z,44.55
2022-08-16T17:13:23.473Z,44.54
2022-08-16T17:15:52.606Z,44.67
2022-08-16T17:19:14.497Z,44.45
2022-08-16T17:21:08.796Z,44.18
2022-08-16T17:23:58.112Z,44.32
2022-08-16T17:26:29.995Z,44.16
2022-08-16T17:29:02.453Z,43.84
2022-08-16T17:31:43.227Z,44.23
2022-08-16T17:34:29.089Z,44.15
2022-08-16T17:36:59.715Z,43.77
2022-08-16T17:39:29.828Z,44.02
2022-08-16T17:42:01.536Z,44.09
2022-08-16T17:44:29.123Z,44.13
2022-08-16T17:46:55.896Z,43.65
2022-08-16T17:49:24.154Z,43.77
2022-08-16T17:51:51.796Z,43.95
2022-08-16T17:54:29.955Z,43.67
2022-08-16T17:57:01.480Z,43.57
2022-08-16T17:59:29.317Z,43.67
2022-08-16T18:01:56.797Z,43.34
2022-08-16T18:04:48.101Z,43.32
2022-08-16T18:07:11.359Z,43.53
2022-08-16T18:09:41.048Z,43.52
2022-08-16T18:12:44.838Z,43.53
2022-08-16T18:15:08.036Z,43.39
2022-08-16T18:17:34.712Z,43.57
2022-08-16T18:20:01.416Z,43.45
2022-08-16T18:22:35.026Z,43.34
2022-08-16T18:25:01.751Z,43.27
2022-08-16T18:27:32.670Z,43.51
2022-08-16T18:29:59.903Z,43.41
2022-08-16T18:32:28.336Z,43.69
2022-08-16T18:34:55.331Z,43.41
2022-08-16T18:37:24.157Z,43.70
2022-08-16T18:39:51.053Z,43.55
2022-08-16T18:42:17.894Z,43.77
2022-08-16T18:44:44.995Z,43.73
2022-08-16T18:47:11.832Z,43.48
2022-08-16T18:49:39.059Z,43.94
2022-08-16T18:52:06.274Z,43.45
2022-08-16T18:54:34.076Z,43.73
2022-08-16T18:57:21.027Z,43.45
2022-08-16T18:59:47.733Z,43.33
2022-08-16T19:02:45.606Z,43.71
2022-08-16T19:05:32.050Z,43.61
2022-08-16T19:07:59.144Z,43.47
2022-08-16T19:10:25.978Z,43.44
2022-08-16T19:12:52.793Z,43.42
2022-08-16T19:15:23.193Z,43.69
2022-08-16T19:17:50.055Z,43.56
2022-08-16T19:20:21.753Z,44.07
2022-08-16T19:23:09.906Z,43.85
2022-08-16T19:25:48.935Z,43.92
2022-08-16T19:28:49.131Z,44.28
2022-08-16T19:31:26.442Z,44.18
2022-08-16T19:33:56.848Z,44.49
2022-08-16T19:36:42.569Z,44.45
2022-08-16T19:39:15.926Z,44.42
2022-08-16T19:41:45.736Z,44.31
2022-08-16T19:44:14.523Z,44.43
2022-08-16T19:46:45.729Z,44.82
2022-08-16T19:49:15.682Z,44.61
2022-08-16T19:51:44.015Z,44.78
2022-08-16T19:54:10.757Z,45.11
2022-08-16T19:56:37.503Z,45.26
2022-08-16T19:59:21.848Z,45.31
2022-08-16T20:01:52.221Z,45.29
2022-08-16T20:04:21.109Z,45.38
2022-08-16T20:06:47.825Z,46.02
2022-08-16T20:09:15.723Z,45.89
2022-08-16T20:11:45.252Z,46.44
2022-08-16T20:14:20.173Z,46.44
2022-08-16T20:16:58.426Z,46.84
2022-08-16T20:19:27.749Z,46.87
2022-08-16T20:21:56.649Z,46.92
2022-08-16T20:24:40.160Z,47.15
2022-08-16T20:27:08.775Z,47.38
2022-08-16T20:29:41.348Z,47.32
2022-08-16T20:32:08.769Z,47.40
2022-08-16T20:34:35.683Z,47.45
2022-08-16T20:37:02.683Z,47.54
2022-08-16T20:39:29.442Z,47.43
2022-08-16T20:41:56.273Z,47.84
2022-08-16T20:44:25.137Z,47.58
2022-08-16T20:46:52.897Z,47.56
2022-08-16T20:49:19.687Z,47.72
2022-08-16T20:51:50.466Z,47.84
2022-08-16T20:54:18.274Z,47.93
2022-08-16T20:56:45.072Z,48.11
2022-08-16T20:59:11.907Z,48.11
2022-08-16T21:01:49.595Z,48.03
2022-08-16T21:04:19.146Z,48.14
2022-08-16T21:06:53.170Z,48.54
2022-08-16T21:09:32.804Z,48.09
2022-08-16T21:12:02.830Z,48.29
2022-08-16T21:14:33.634Z,48.17
2022-08-16T21:17:02.287Z,48.38
2022-08-16T21:19:29.268Z,48.38
2022-08-16T21:21:56.692Z,48.38
2022-08-16T21:24:24.401Z,48.64
2022-08-16T21:26:56.119Z,48.38
2022-08-16T21:29:31.634Z,48.68
2022-08-16T21:32:15.292Z,48.79
2022-08-16T21:34:43.712Z,48.82
2022-08-16T21:37:11.018Z,48.68
2022-08-16T21:39:38.494Z,49.08
2022-08-16T21:43:14.215Z,49.12
2022-08-16T21:45:43.116Z,49.20
2022-08-16T21:48:10.551Z,49.28
2022-08-16T21:50:38.787Z,49.42
2022-08-16T21:53:08.387Z,49.00
2022-08-16T21:55:36.099Z,49.31
2022-08-16T21:58:03.202Z,49.19
2022-08-16T22:00:30.214Z,49.33
2022-08-16T22:02:59.376Z,49.26
2022-08-16T22:05:26.431Z,49.38
2022-08-16T22:07:55.400Z,49.50
2022-08-16T22:11:04.584Z,49.59
2022-08-16T22:13:25.020Z,49.90
2022-08-16T22:15:52.879Z,49.81
2022-08-16T22:18:20.752Z,49.80
2022-08-16T22:20:49.047Z,50.00
2022-08-16T22:23:24.247Z,50.00
2022-08-16T22:25:53.430Z,49.86
2022-08-16T22:28:22.100Z,50.13
2022-08-16T22:30:49.857Z,49.94
2022-08-16T22:33:27.033Z,49.93
2022-08-16T22:35:57.151Z,50.30
2022-08-16T22:38:54.247Z,50.06
2022-08-16T22:41:11.618Z,50.38
2022-08-16T22:43:38.313Z,50.16
2022-08-16T22:46:05.090Z,50.70
2022-08-16T22:48:32.637Z,50.24
2022-08-16T22:51:06.246Z,50.66
2022-08-16T22:53:34.180Z,50.50
2022-08-16T22:56:04.571Z,50.51
2022-08-16T22:58:34.097Z,50.49
2022-08-16T23:01:06.145Z,50.78
2022-08-16T23:03:33.619Z,51.17
2022-08-16T23:06:00.845Z,51.23
2022-08-16T23:08:38.182Z,51.27
2022-08-16T23:11:09.243Z,51.47
2022-08-16T23:13:36.556Z,51.18
2022-08-16T23:16:10.621Z,51.49
2022-08-16T23:18:39.238Z,51.68
2022-08-16T23:21:09.387Z,51.95
2022-08-16T23:23:37.565Z,52.01
2022-08-16T23:26:46.084Z,52.07
2022-08-16T23:28:52.128Z,52.03
2022-08-16T23:31:19.677Z,52.59
2022-08-16T23:33:46.483Z,52.71
2022-08-16T23:36:13.623Z,52.98
2022-08-16T23:38:40.856Z,52.95
2022-08-16T23:41:12.308Z,53.17
2022-08-16T23:43:43.745Z,53.51
2022-08-16T23:46:16.972Z,53.50
2022-08-16T23:49:57.072Z,53.59
2022-08-16T23:51:32.354Z,54.16
2022-08-16T23:54:00.240Z,54.30
2022-08-16T23:56:26.923Z,54.31
2022-08-16T23:59:02.974Z,54.43
